createdAt,value
2022-09-13T00:03:52.992Z,68.50
2022-09-13T00:08:53.379Z,68.50
2022-09-13T00:13:52.040Z,68.60
2022-09-13T00:18:51.063Z,68.90
2022-09-13T00:23:50.163Z,69.20
2022-09-13T00:28:50.216Z,69.40
2022-09-13T00:33:49.117Z,69.80
2022-09-13T00:38:48.144Z,70.20
2022-09-13T00:43:47.244Z,70.30
2022-09-13T00:48:46.503Z,70.40
2022-09-13T00:53:45.197Z,70.30
2022-09-13T00:58:44.191Z,70.40
2022-09-13T01:03:43.004Z,70.50
2022-09-13T01:08:42.208Z,70.70
2022-09-13T01:13:41.257Z,70.80
2022-09-13T01:18:40.013Z,71.00
2022-09-13T01:23:39.028Z,71.00
2022-09-13T01:28:38.054Z,71.00
2022-09-13T01:33:37.284Z,71.10
2022-09-13T01:38:36.050Z,71.30
2022-09-13T01:43:35.068Z,71.40
2022-09-13T01:48:34.051Z,71.40
2022-09-13T01:53:33.063Z,71.60
2022-09-13T01:58:32.120Z,71.50
2022-09-13T02:03:31.108Z,71.70
2022-09-13T02:08:30.624Z,71.70
2022-09-13T02:13:29.139Z,71.80
2022-09-13T02:18:28.144Z,72.00
2022-09-13T02:23:27.226Z,72.00
2022-09-13T02:28:26.856Z,72.20
2022-09-13T02:33:26.196Z,72.40
2022-09-13T02:38:25.021Z,72.50
2022-09-13T02:43:24.040Z,72.60
2022-09-13T02:48:23.235Z,72.50
2022-09-13T02:53:22.056Z,72.70
2022-09-13T02:58:26.265Z,72.70
2022-09-13T03:03:22.112Z,72.90
2022-09-13T03:08:21.035Z,72.90
2022-09-13T03:13:20.175Z,72.90
2022-09-13T03:18:19.152Z,72.90
2022-09-13T03:23:18.222Z,73.10
2022-09-13T03:28:17.180Z,73.40
2022-09-13T03:33:16.270Z,73.90
2022-09-13T03:38:15.299Z,74.10
2022-09-13T03:43:14.202Z,74.60
2022-09-13T03:48:13.072Z,74.80
2022-09-13T03:53:12.226Z,75.80
2022-09-13T03:58:11.245Z,76.40
2022-09-13T04:03:10.444Z,76.50
2022-09-13T04:08:09.399Z,77.00
2022-09-13T04:13:08.603Z,76.90
2022-09-13T04:18:08.780Z,77.10
2022-09-13T04:23:08.150Z,77.20
2022-09-13T04:28:07.173Z,77.50
2022-09-13T04:33:06.155Z,77.60
2022-09-13T04:38:05.180Z,78.00
2022-09-13T04:43:04.200Z,78.10
2022-09-13T04:48:03.193Z,78.20
2022-09-13T04:53:02.508Z,78.50
2022-09-13T04:58:02.561Z,78.60
2022-09-13T05:03:01.336Z,79.10
2022-09-13T05:08:00.143Z,79.50
2022-09-13T05:12:59.281Z,79.70
2022-09-13T05:17:58.125Z,80.10
2022-09-13T05:22:57.301Z,80.50
2022-09-13T05:27:56.320Z,80.80
2022-09-13T05:32:55.137Z,80.90
2022-09-13T05:37:54.360Z,81.10
2022-09-13T05:42:53.372Z,81.10
2022-09-13T05:47:52.230Z,81.40
2022-09-13T05:52:51.377Z,81.50
2022-09-13T05:57:50.173Z,81.40
2022-09-13T06:02:49.255Z,81.20
2022-09-13T06:07:48.707Z,81.20
2022-09-13T06:12:47.373Z,81.10
2022-09-13T06:17:46.242Z,81.20
2022-09-13T06:22:45.255Z,80.90
2022-09-13T06:27:44.262Z,81.00
2022-09-13T06:32:43.273Z,80.90
2022-09-13T06:37:42.312Z,80.80
2022-09-13T06:42:41.297Z,80.60
2022-09-13T06:47:40.868Z,80.30
2022-09-13T06:52:40.360Z,80.10
2022-09-13T06:57:39.346Z,80.00
2022-09-13T07:02:38.185Z,79.90
2022-09-13T07:07:37.403Z,79.50
2022-09-13T07:12:36.454Z,79.10
2022-09-13T07:17:35.397Z,79.00
2022-09-13T07:22:34.222Z,78.70
2022-09-13T07:27:33.463Z,78.20
2022-09-13T07:32:32.425Z,78.40
2022-09-13T07:37:31.504Z,78.00
2022-09-13T07:42:30.257Z,77.90
2022-09-13T07:47:29.247Z,77.80
2022-09-13T07:52:28.429Z,76.90
2022-09-13T07:57:27.273Z,76.80
2022-09-13T08:02:26.425Z,76.60
2022-09-13T08:07:25.410Z,76.30
2022-09-13T08:12:24.312Z,75.60
2022-09-13T08:17:23.263Z,75.20
2022-09-13T08:22:22.628Z,74.70
2022-09-13T08:27:21.464Z,74.10
2022-09-13T08:32:20.370Z,73.70
2022-09-13T08:37:19.401Z,73.10
2022-09-13T08:42:18.197Z,73.10
2022-09-13T08:47:17.407Z,72.80
2022-09-13T08:52:16.207Z,72.20
2022-09-13T08:57:15.415Z,71.50
2022-09-13T09:02:14.483Z,70.90
2022-09-13T09:07:13.709Z,69.20
2022-09-13T09:12:12.449Z,69.60
2022-09-13T09:17:11.269Z,68.50
2022-09-13T09:22:10.265Z,68.50
2022-09-13T09:27:09.437Z,68.60
2022-09-13T09:32:08.957Z,68.30
2022-09-13T09:37:08.553Z,67.60
2022-09-13T09:42:07.231Z,67.50
2022-09-13T09:47:06.343Z,67.20
2022-09-13T09:52:06.432Z,66.50
2022-09-13T09:57:06.555Z,65.90
2022-09-13T10:02:07.342Z,62.90
2022-09-13T10:07:06.294Z,62.00
2022-09-13T10:12:05.460Z,63.60
2022-09-13T10:17:04.780Z,64.00
2022-09-13T10:22:03.619Z,63.30
2022-09-13T10:27:03.712Z,60.70
2022-09-13T10:32:04.143Z,59.80
2022-09-13T10:37:03.413Z,59.90
2022-09-13T10:42:02.442Z,60.30
2022-09-13T10:47:01.444Z,58.90
2022-09-13T10:52:00.307Z,60.10
2022-09-13T10:56:59.565Z,60.40
2022-09-13T11:01:58.464Z,59.70
2022-09-13T11:07:01.716Z,60.30
2022-09-13T11:11:58.246Z,60.50
2022-09-13T11:16:57.555Z,60.10
2022-09-13T11:21:56.559Z,60.20
2022-09-13T11:26:55.378Z,60.50
2022-09-13T11:31:54.421Z,60.60
2022-09-13T11:36:53.412Z,58.30
2022-09-13T11:41:52.322Z,58.20
2022-09-13T11:46:51.990Z,58.10
2022-09-13T11:51:50.724Z,58.30
2022-09-13T11:56:49.347Z,57.50
2022-09-13T12:01:48.514Z,56.90
2022-09-13T12:06:47.365Z,57.60
2022-09-13T12:11:46.375Z,57.30
2022-09-13T12:16:45.536Z,57.40
2022-09-13T12:21:44.660Z,56.70
2022-09-13T12:26:44.677Z,56.50
2022-09-13T12:31:43.511Z,55.70
2022-09-13T12:36:42.371Z,55.60
2022-09-13T12:41:41.656Z,56.20
2022-09-13T12:46:40.392Z,56.60
2022-09-13T12:51:39.387Z,54.60
2022-09-13T12:56:38.407Z,55.50
2022-09-13T13:01:40.499Z,56.30
2022-09-13T13:06:39.507Z,55.70
2022-09-13T13:11:38.404Z,56.00
2022-09-13T13:16:38.689Z,55.20
2022-09-13T13:21:40.441Z,54.70
2022-09-13T13:26:39.437Z,54.50
2022-09-13T13:31:38.465Z,54.50
2022-09-13T13:36:37.473Z,53.80
2022-09-13T13:41:37.859Z,54.10
2022-09-13T13:46:36.595Z,54.20
2022-09-13T13:51:35.505Z,54.10
2022-09-13T13:56:34.636Z,53.90
2022-09-13T14:01:33.645Z,53.90
2022-09-13T14:06:32.600Z,53.10
2022-09-13T14:11:31.460Z,53.50
2022-09-13T14:16:35.690Z,53.20
2022-09-13T14:21:31.647Z,53.00
2022-09-13T14:26:30.558Z,53.10
2022-09-13T14:31:29.482Z,51.80
2022-09-13T14:36:28.462Z,52.10
2022-09-13T14:41:27.564Z,52.90
2022-09-13T14:46:26.966Z,53.00
2022-09-13T14:51:25.693Z,53.30
2022-09-13T14:56:24.499Z,53.60
2022-09-13T15:01:23.556Z,53.70
2022-09-13T15:06:23.075Z,53.60
2022-09-13T15:11:21.520Z,53.80
2022-09-13T15:16:20.563Z,53.60
2022-09-13T15:21:19.562Z,53.70
2022-09-13T15:26:18.572Z,53.80
2022-09-13T15:31:17.587Z,54.40
2022-09-13T15:36:17.118Z,54.40
2022-09-13T15:41:15.500Z,54.80
2022-09-13T15:46:14.671Z,55.70
2022-09-13T15:51:13.547Z,56.60
2022-09-13T15:56:12.553Z,57.10
2022-09-13T16:01:11.658Z,57.50
2022-09-13T16:06:10.672Z,58.00
2022-09-13T16:11:09.582Z,58.60
2022-09-13T16:16:08.684Z,59.00
2022-09-13T16:21:07.698Z,59.70
2022-09-13T16:26:06.803Z,60.40
2022-09-13T16:31:05.750Z,60.90
2022-09-13T16:36:04.632Z,60.90
2022-09-13T16:41:03.722Z,61.10
2022-09-13T16:46:02.733Z,61.30
2022-09-13T16:51:01.599Z,61.50
2022-09-13T16:56:04.870Z,61.70
2022-09-13T17:01:01.866Z,62.20
2022-09-13T17:06:01.018Z,62.50
2022-09-13T17:10:59.761Z,63.00
2022-09-13T17:15:59.070Z,63.30
2022-09-13T17:20:57.654Z,63.90
2022-09-13T17:25:56.962Z,64.30
2022-09-13T17:30:58.418Z,64.50
2022-09-13T17:35:56.765Z,65.30
2022-09-13T17:40:56.725Z,65.80
2022-09-13T17:45:55.810Z,66.40
2022-09-13T17:50:55.014Z,67.10
2022-09-13T17:55:53.840Z,67.60
2022-09-13T18:00:52.837Z,68.00
2022-09-13T18:05:51.855Z,68.40
2022-09-13T18:11:10.556Z,68.70
2022-09-13T18:15:51.956Z,68.60
2022-09-13T18:20:50.677Z,68.60
2022-09-13T18:25:49.809Z,69.00
2022-09-13T18:30:48.708Z,69.40
2022-09-13T18:35:47.710Z,70.10
2022-09-13T18:40:46.754Z,70.80
2022-09-13T18:45:45.637Z,71.40
2022-09-13T18:50:44.786Z,72.60
2022-09-13T18:55:43.806Z,72.90
2022-09-13T19:00:42.972Z,73.60
2022-09-13T19:05:44.809Z,74.10
2022-09-13T19:10:43.839Z,74.60
2022-09-13T19:15:43.051Z,74.60
2022-09-13T19:20:41.837Z,74.90
2022-09-13T19:25:41.332Z,75.20
2022-09-13T19:30:40.718Z,75.50
2022-09-13T19:35:39.653Z,75.70
2022-09-13T19:40:39.318Z,76.10
2022-09-13T19:45:37.823Z,76.50
2022-09-13T19:50:36.813Z,76.90
2022-09-13T19:55:35.718Z,77.40
2022-09-13T20:00:35.259Z,77.50
2022-09-13T20:05:33.862Z,78.00
2022-09-13T20:10:32.814Z,78.50
2022-09-13T20:15:32.943Z,78.90
2022-09-13T20:20:32.650Z,79.70
2022-09-13T20:25:31.926Z,80.40
2022-09-13T20:30:30.824Z,80.90
2022-09-13T20:35:31.736Z,82.00
2022-09-13T20:40:31.201Z,82.20
2022-09-13T20:45:29.708Z,82.90
2022-09-13T20:50:28.834Z,83.80
2022-09-13T20:55:27.895Z,84.40
2022-09-13T21:00:26.861Z,84.70
2022-09-13T21:05:25.869Z,86.20
2022-09-13T21:10:25.805Z,86.90
2022-09-13T21:15:24.912Z,87.30
2022-09-13T21:20:23.947Z,88.20
2022-09-13T21:25:22.923Z,88.50
2022-09-13T21:30:21.948Z,89.10
2022-09-13T21:35:21.032Z,90.30
2022-09-13T21:40:19.875Z,90.60
2022-09-13T21:45:18.787Z,90.90
2022-09-13T21:50:18.599Z,91.10
2022-09-13T21:55:17.832Z,91.50
2022-09-13T22:00:19.050Z,91.60
2022-09-13T22:05:17.743Z,91.80
2022-09-13T22:10:16.856Z,91.80
2022-09-13T22:15:17.695Z,92.00
2022-09-13T22:20:16.784Z,92.00
2022-09-13T22:25:15.752Z,92.10
2022-09-13T22:30:14.834Z,92.30
2022-09-13T22:35:13.763Z,92.80
2022-09-13T22:40:12.876Z,93.00
2022-09-13T22:45:11.775Z,93.30
2022-09-13T22:50:10.845Z,93.70
2022-09-13T22:55:09.848Z,93.80
2022-09-13T23:00:09.181Z,93.70
2022-09-13T23:05:07.805Z,93.90
2022-09-13T23:10:06.805Z,93.90
2022-09-13T23:15:05.918Z,94.00
2022-09-13T23:20:05.217Z,94.20
2022-09-13T23:25:03.984Z,94.30
2022-09-13T23:30:02.951Z,94.30
2022-09-13T23:35:01.854Z,94.40
2022-09-13T23:40:01.237Z,94.50
2022-09-13T23:44:59.971Z,94.70
2022-09-13T23:49:58.979Z,95.00
2022-09-13T23:54:58.295Z,95.10
2022-09-13T23:59:57.019Z,95.20
